Time;durP1;ratioP1;P1;durP2;ratioP2;P2;SDS_P1;SDS_P2;PMS_P1;PMS_P2;Temp;Humidity;BMP_temperature;BMP_pressure;BME280_temperature;BME280_humidity;BME280_pressure;Samples;Min_cycle;Max_cycle;Signal;HPM_P1;HPM_P2
2023/01/25 00:02:04;;;;;;;16.35;13.40;;;3.50;99.90;;;;;;5091131;28;20386;-69
2023/01/25 00:04:30;;;;;;;18.83;13.68;;;3.50;99.90;;;;;;5084427;28;20400;-69
2023/01/25 00:06:56;;;;;;;19.40;14.02;;;3.50;99.90;;;;;;5089530;28;20892;-70
2023/01/25 00:09:23;;;;;;;18.85;14.50;;;3.50;99.90;;;;;;5089395;28;20413;-70
2023/01/25 00:11:48;;;;;;;17.88;13.63;;;3.60;99.90;;;;;;5089640;28;20954;-70
2023/01/25 00:14:14;;;;;;;16.73;13.40;;;3.60;99.90;;;;;;5089296;28;20490;-70
2023/01/25 00:16:40;;;;;;;17.45;13.25;;;3.50;99.90;;;;;;5089622;28;20389;-70
2023/01/25 00:19:07;;;;;;;16.38;13.45;;;3.50;99.90;;;;;;5089600;28;20402;-69
2023/01/25 00:21:33;;;;;;;16.85;13.98;;;3.60;99.90;;;;;;5092920;28;20911;-71
2023/01/25 00:23:59;;;;;;;18.87;15.00;;;3.60;99.90;;;;;;5074376;28;20374;-69
2023/01/25 00:26:25;;;;;;;17.63;14.48;;;3.60;99.90;;;;;;5093057;28;20378;-70
2023/01/25 00:28:52;;;;;;;21.13;13.27;;;3.60;99.90;;;;;;5093264;28;20907;-70
2023/01/25 00:32:00;;;;;;;18.57;15.23;;;3.70;99.90;;;;;;5091617;28;20482;-70
2023/01/25 00:34:25;;;;;;;18.00;13.98;;;3.50;99.90;;;;;;5093232;28;20410;-70
2023/01/25 00:37:01;;;;;;;18.83;14.43;;;3.50;99.90;;;;;;5092984;28;20439;-69
2023/01/25 00:39:28;;;;;;;17.38;13.70;;;3.60;99.90;;;;;;5106770;28;20428;-69
2023/01/25 00:41:54;;;;;;;18.52;14.80;;;3.60;99.90;;;;;;5113371;28;20412;-70
2023/01/25 00:44:20;;;;;;;21.58;15.63;;;3.50;99.90;;;;;;5112541;28;20419;-70
2023/01/25 00:46:45;;;;;;;17.63;13.68;;;3.60;99.90;;;;;;5113260;28;20381;-70
2023/01/25 00:49:20;;;;;;;20.83;15.38;;;3.60;99.90;;;;;;5112955;28;20433;-70
2023/01/25 00:51:46;;;;;;;18.27;15.05;;;3.60;99.90;;;;;;5080131;28;20394;-70
2023/01/25 00:54:11;;;;;;;20.00;14.50;;;3.50;99.90;;;;;;5091990;28;20809;-70
2023/01/25 00:56:37;;;;;;;17.30;14.03;;;3.50;99.90;;;;;;5095842;28;20392;-70
2023/01/25 00:59:02;;;;;;;18.20;13.82;;;3.50;99.90;;;;;;5112501;28;20415;-70
2023/01/25 01:01:28;;;;;;;17.27;14.50;;;3.50;99.90;;;;;;5112911;28;20380;-70
2023/01/25 01:03:53;;;;;;;19.17;15.32;;;3.40;99.90;;;;;;5094811;28;20470;-69
2023/01/25 01:06:19;;;;;;;20.60;15.57;;;3.30;99.90;;;;;;5092296;28;20843;-70
2023/01/25 01:08:44;;;;;;;19.07;16.03;;;3.40;99.90;;;;;;5092454;28;20502;-70
2023/01/25 01:11:11;;;;;;;21.33;14.77;;;3.40;99.90;;;;;;5092499;28;20457;-70
2023/01/25 01:13:38;;;;;;;20.73;15.00;;;3.30;99.90;;;;;;5101253;28;20392;-70
2023/01/25 01:16:10;;;;;;;18.05;13.82;;;3.30;99.90;;;;;;5112306;28;20472;-70
2023/01/25 01:18:38;;;;;;;18.77;14.47;;;3.30;99.90;;;;;;5112476;28;20455;-70
2023/01/25 01:21:05;;;;;;;19.58;15.50;;;3.30;99.90;;;;;;5112629;28;20385;-70
2023/01/25 01:23:31;;;;;;;18.88;14.52;;;3.40;99.90;;;;;;5111771;28;20385;-69
2023/01/25 01:26:00;;;;;;;19.58;15.38;;;3.20;99.90;;;;;;5101637;28;20421;-69
2023/01/25 01:28:31;;;;;;;20.23;15.77;;;3.40;99.90;;;;;;5071701;28;20379;-69
2023/01/25 01:31:01;;;;;;;20.05;14.55;;;3.40;99.90;;;;;;5071660;28;20441;-70
2023/01/25 01:33:27;;;;;;;19.25;13.43;;;3.50;99.90;;;;;;5070430;28;20390;-69
2023/01/25 01:35:52;;;;;;;19.40;14.93;;;3.40;99.90;;;;;;5082237;28;20390;-69
2023/01/25 01:38:18;;;;;;;19.20;14.80;;;3.40;99.90;;;;;;5091885;28;20394;-69
2023/01/25 01:40:44;;;;;;;19.20;15.05;;;3.40;99.90;;;;;;5091807;28;20374;-69
2023/01/25 01:43:19;;;;;;;20.50;15.32;;;3.40;99.90;;;;;;5097246;28;20402;-70
2023/01/25 01:45:50;;;;;;;19.88;15.55;;;3.50;99.90;;;;;;5091640;28;20841;-69
2023/01/25 01:48:42;;;;;;;21.30;14.85;;;3.40;99.90;;;;;;5091454;28;20398;-69
2023/01/25 01:51:27;;;;;;;19.40;14.52;;;3.30;99.90;;;;;;5091489;28;20414;-69
2023/01/25 01:54:15;;;;;;;20.30;15.80;;;3.20;99.90;;;;;;5072518;28;20764;-69
2023/01/25 01:56:57;;;;;;;17.88;14.73;;;3.20;99.90;;;;;;5091530;28;20443;-69
2023/01/25 01:59:39;;;;;;;18.60;14.32;;;3.20;99.90;;;;;;5106557;28;20469;-69
2023/01/25 02:02:05;;;;;;;21.63;15.43;;;3.30;99.90;;;;;;5111667;28;21081;-69
2023/01/25 02:04:31;;;;;;;19.35;14.90;;;3.20;99.90;;;;;;5088900;28;20519;-69
2023/01/25 02:07:10;;;;;;;19.42;15.23;;;3.20;99.90;;;;;;5073273;28;20415;-69
2023/01/25 02:09:36;;;;;;;21.20;15.18;;;3.30;99.90;;;;;;5113620;22;20494;-69
2023/01/25 02:12:04;;;;;;;22.08;16.27;;;3.20;99.90;;;;;;5132466;27;20386;-69
2023/01/25 02:14:30;;;;;;;25.40;17.15;;;3.10;99.90;;;;;;5131488;27;20868;-70
2023/01/25 02:16:56;;;;;;;20.20;15.50;;;3.20;99.90;;;;;;5131719;27;20471;-70
2023/01/25 02:19:30;;;;;;;22.00;16.03;;;3.10;99.90;;;;;;5123526;27;20438;-70
2023/01/25 02:21:57;;;;;;;20.20;15.70;;;3.20;99.90;;;;;;5111551;28;20833;-70
2023/01/25 02:24:29;;;;;;;20.40;15.45;;;3.20;99.90;;;;;;5110371;28;20746;-70
2023/01/25 02:26:55;;;;;;;19.85;15.20;;;3.20;99.90;;;;;;5112090;28;20468;-69
2023/01/25 02:29:23;;;;;;;21.33;16.08;;;3.20;99.90;;;;;;5110527;28;20400;-72
2023/01/25 02:31:51;;;;;;;22.08;15.15;;;3.20;99.90;;;;;;5111531;28;20396;-71
2023/01/25 02:34:17;;;;;;;20.15;15.00;;;3.40;99.90;;;;;;5110724;28;20391;-70
2023/01/25 02:36:43;;;;;;;21.80;14.40;;;3.30;99.90;;;;;;5111305;28;20427;-70
2023/01/25 02:39:14;;;;;;;19.90;16.30;;;3.20;99.90;;;;;;5111168;28;20427;-70
2023/01/25 02:41:42;;;;;;;20.90;15.65;;;3.10;99.90;;;;;;5111083;28;20449;-70
2023/01/25 02:44:34;;;;;;;19.45;15.30;;;3.10;99.90;;;;;;5107804;28;20399;-70
2023/01/25 02:47:00;;;;;;;22.38;16.27;;;3.20;99.90;;;;;;5106746;28;20412;-70
2023/01/25 02:49:25;;;;;;;21.13;16.07;;;3.20;99.90;;;;;;5110976;28;20427;-70
2023/01/25 02:51:56;;;;;;;20.43;15.40;;;3.30;99.90;;;;;;5110145;28;20377;-70
2023/01/25 02:54:24;;;;;;;19.92;15.73;;;3.20;99.90;;;;;;5109757;28;20399;-72
2023/01/25 02:56:50;;;;;;;21.35;15.43;;;3.20;99.90;;;;;;5111219;28;20804;-71
2023/01/25 02:59:17;;;;;;;21.30;16.07;;;3.20;99.90;;;;;;5110741;28;20404;-70
2023/01/25 03:01:43;;;;;;;19.40;15.80;;;3.00;99.90;;;;;;5111070;28;20383;-71
2023/01/25 03:04:09;;;;;;;19.73;15.43;;;3.10;99.90;;;;;;5110248;28;20847;-70
2023/01/25 03:06:35;;;;;;;21.60;16.60;;;3.10;99.90;;;;;;5110688;28;20451;-71
2023/01/25 03:09:02;;;;;;;21.58;16.00;;;3.20;99.90;;;;;;5110359;28;20407;-70
2023/01/25 03:11:28;;;;;;;22.70;16.25;;;3.20;99.90;;;;;;5110938;28;20457;-70
2023/01/25 03:13:53;;;;;;;20.63;14.48;;;3.20;99.90;;;;;;5108717;28;20840;-70
2023/01/25 03:16:19;;;;;;;19.83;14.25;;;3.10;99.90;;;;;;5110791;28;20441;-70
2023/01/25 03:18:45;;;;;;;22.13;16.30;;;3.00;99.90;;;;;;5110673;28;20403;-70
2023/01/25 03:21:13;;;;;;;20.63;14.82;;;3.10;99.90;;;;;;5110508;28;20383;-70
2023/01/25 03:23:39;;;;;;;20.63;15.43;;;3.10;99.90;;;;;;5090102;28;20389;-70
2023/01/25 03:26:14;;;;;;;22.90;16.10;;;3.00;99.90;;;;;;5110635;28;20464;-70
2023/01/25 03:28:40;;;;;;;20.55;16.20;;;3.00;99.90;;;;;;5109457;28;20817;-70
2023/01/25 03:31:08;;;;;;;21.13;16.05;;;3.10;99.90;;;;;;5110521;28;20735;-70
2023/01/25 03:33:33;;;;;;;23.45;15.98;;;3.10;99.90;;;;;;5108491;28;20471;-71
2023/01/25 03:36:00;;;;;;;20.27;15.00;;;3.10;99.90;;;;;;5108934;28;20928;-71
2023/01/25 03:38:25;;;;;;;21.27;15.75;;;3.10;99.90;;;;;;5110319;28;20414;-70
2023/01/25 03:40:51;;;;;;;22.42;16.25;;;3.10;99.90;;;;;;5110668;28;20463;-70
2023/01/25 03:43:17;;;;;;;19.88;15.45;;;3.00;99.90;;;;;;5109912;28;20383;-70
2023/01/25 03:45:43;;;;;;;22.60;16.58;;;3.10;99.90;;;;;;5110618;28;20380;-71
2023/01/25 03:48:09;;;;;;;20.40;14.20;;;3.10;99.90;;;;;;5110228;28;20536;-70
2023/01/25 03:50:34;;;;;;;20.60;15.82;;;3.10;99.90;;;;;;5110168;28;20423;-70
2023/01/25 03:53:07;;;;;;;21.30;16.13;;;3.00;99.90;;;;;;5109378;28;20388;-71
2023/01/25 03:55:33;;;;;;;20.17;14.93;;;3.10;99.90;;;;;;5104304;28;20412;-70
2023/01/25 03:57:59;;;;;;;21.92;16.00;;;3.10;99.90;;;;;;5114306;28;20396;-70
2023/01/25 04:00:24;;;;;;;20.75;15.13;;;3.10;99.90;;;;;;5114190;28;20376;-71
2023/01/25 04:02:50;;;;;;;21.33;14.90;;;2.90;99.90;;;;;;5111672;28;20463;-70
2023/01/25 04:05:15;;;;;;;21.33;15.87;;;3.00;99.90;;;;;;5111894;28;20388;-70
2023/01/25 04:07:41;;;;;;;21.30;16.08;;;3.10;99.90;;;;;;5114062;28;20376;-70
2023/01/25 04:10:07;;;;;;;22.30;15.60;;;3.00;99.90;;;;;;5113483;28;20439;-70
2023/01/25 04:12:33;;;;;;;21.92;15.68;;;3.10;99.90;;;;;;5113387;28;20392;-70
2023/01/25 04:14:58;;;;;;;21.33;16.17;;;3.10;99.90;;;;;;5114747;28;20758;-70
2023/01/25 04:17:23;;;;;;;21.17;15.73;;;3.10;99.90;;;;;;5115807;28;20380;-70
2023/01/25 04:19:49;;;;;;;20.50;15.97;;;3.00;99.90;;;;;;5115312;28;20962;-71
2023/01/25 04:22:15;;;;;;;22.33;15.73;;;2.90;99.90;;;;;;5116730;28;20421;-71
2023/01/25 04:24:41;;;;;;;20.10;15.60;;;2.90;99.90;;;;;;5113118;28;20377;-70
2023/01/25 04:27:07;;;;;;;19.88;15.00;;;2.90;99.90;;;;;;5114119;27;20387;-70
2023/01/25 04:29:33;;;;;;;19.80;14.80;;;3.10;99.90;;;;;;5113586;28;20415;-70
2023/01/25 04:31:59;;;;;;;24.13;16.30;;;3.00;99.90;;;;;;5114239;28;20416;-70
2023/01/25 04:34:25;;;;;;;25.48;16.45;;;3.00;99.90;;;;;;5113113;28;20751;-71
2023/01/25 04:36:50;;;;;;;21.37;15.40;;;3.00;99.90;;;;;;5114170;28;20395;-71
2023/01/25 04:39:16;;;;;;;20.67;15.50;;;3.10;99.90;;;;;;5114271;28;20441;-71
2023/01/25 04:41:41;;;;;;;21.58;16.17;;;3.10;99.90;;;;;;5114542;28;20415;-70
2023/01/25 04:44:07;;;;;;;20.47;15.33;;;3.20;99.90;;;;;;5112569;28;20479;-70
2023/01/25 04:46:32;;;;;;;19.42;14.95;;;3.10;99.90;;;;;;5114382;28;20445;-71
2023/01/25 04:48:58;;;;;;;21.02;15.10;;;3.10;99.90;;;;;;5114360;28;20380;-70
2023/01/25 04:51:23;;;;;;;20.25;15.60;;;3.00;99.90;;;;;;5113802;28;20457;-71
2023/01/25 04:53:49;;;;;;;22.35;14.63;;;3.10;99.90;;;;;;5112902;28;20875;-70
2023/01/25 04:56:14;;;;;;;20.98;15.90;;;3.00;99.90;;;;;;5113557;28;20491;-70
2023/01/25 04:58:40;;;;;;;23.30;16.38;;;2.90;99.90;;;;;;5113440;28;20404;-70
2023/01/25 05:01:06;;;;;;;21.45;15.25;;;2.90;99.90;;;;;;5113010;28;20384;-70
2023/01/25 05:03:31;;;;;;;24.55;17.38;;;3.00;99.90;;;;;;5112664;28;20385;-70
2023/01/25 05:05:57;;;;;;;22.65;15.75;;;3.00;99.90;;;;;;5112907;28;20368;-70
2023/01/25 05:08:22;;;;;;;19.88;14.65;;;2.90;99.90;;;;;;5112663;28;20392;-70
2023/01/25 05:10:48;;;;;;;21.02;15.95;;;2.90;99.90;;;;;;5112818;28;20769;-70
2023/01/25 05:13:13;;;;;;;21.20;15.53;;;3.00;99.90;;;;;;5112215;28;20472;-71
2023/01/25 05:15:39;;;;;;;22.53;15.83;;;2.90;99.90;;;;;;5112956;28;20900;-70
2023/01/25 05:18:04;;;;;;;20.90;15.43;;;2.90;99.90;;;;;;5113229;28;20484;-71
2023/01/25 05:20:30;;;;;;;20.90;15.23;;;2.90;99.90;;;;;;5112759;28;20384;-70
2023/01/25 05:22:55;;;;;;;22.50;15.60;;;2.90;99.90;;;;;;5112494;28;20404;-70
2023/01/25 05:28:06;;;;;;;23.52;16.40;;;2.80;99.90;;;;;;5113012;28;20437;-71
2023/01/25 05:30:32;;;;;;;21.55;16.48;;;2.80;99.90;;;;;;5111960;28;20766;-70
2023/01/25 05:32:58;;;;;;;23.08;15.43;;;2.90;99.90;;;;;;5111480;28;20405;-70
2023/01/25 05:35:24;;;;;;;24.03;16.90;;;2.90;99.90;;;;;;5112523;28;20397;-70
2023/01/25 05:37:49;;;;;;;23.95;15.70;;;2.80;99.90;;;;;;5112702;28;20397;-70
2023/01/25 05:40:15;;;;;;;19.73;15.37;;;2.90;99.90;;;;;;5112670;28;20400;-71
2023/01/25 05:42:40;;;;;;;25.37;16.90;;;2.90;99.90;;;;;;5111647;28;21135;-71
2023/01/25 05:45:07;;;;;;;23.33;16.47;;;3.00;99.90;;;;;;5112379;28;20376;-70
2023/01/25 05:47:33;;;;;;;22.33;15.82;;;2.90;99.90;;;;;;5112359;28;20947;-70
2023/01/25 05:49:58;;;;;;;22.85;17.08;;;2.90;99.90;;;;;;5112368;28;20376;-70
2023/01/25 05:52:24;;;;;;;20.67;16.30;;;2.90;99.90;;;;;;5110781;28;20483;-69
2023/01/25 05:54:49;;;;;;;19.48;15.48;;;2.90;99.90;;;;;;5111933;28;20377;-70
2023/01/25 05:57:15;;;;;;;22.90;16.93;;;2.80;99.90;;;;;;5112333;28;20376;-71
2023/01/25 05:59:41;;;;;;;21.17;15.88;;;2.90;99.90;;;;;;5112010;28;20407;-71
2023/01/25 06:02:06;;;;;;;22.67;15.95;;;2.90;99.90;;;;;;5112085;28;20388;-70
2023/01/25 06:04:32;;;;;;;22.13;16.10;;;2.90;99.90;;;;;;5106794;28;20392;-70
2023/01/25 06:06:57;;;;;;;23.42;16.52;;;2.80;99.90;;;;;;5112092;28;20395;-71
2023/01/25 06:09:23;;;;;;;20.67;15.68;;;2.90;99.90;;;;;;5111649;28;20475;-70
2023/01/25 06:11:49;;;;;;;20.88;15.80;;;2.80;99.90;;;;;;5111702;28;20388;-70
2023/01/25 06:14:14;;;;;;;21.55;16.48;;;2.80;99.90;;;;;;5111224;28;20885;-70
2023/01/25 06:16:40;;;;;;;20.53;14.07;;;2.80;99.90;;;;;;5111527;28;20415;-70
2023/01/25 06:19:07;;;;;;;26.07;16.80;;;2.70;99.90;;;;;;5111426;28;20431;-70
2023/01/25 06:21:37;;;;;;;22.33;16.37;;;2.80;99.90;;;;;;5111826;28;20376;-70
2023/01/25 06:24:03;;;;;;;21.55;15.32;;;2.80;99.90;;;;;;5111167;28;20376;-69
2023/01/25 06:26:29;;;;;;;23.20;16.70;;;2.80;99.90;;;;;;5111739;28;20834;-71
2023/01/25 06:28:54;;;;;;;22.10;16.52;;;2.80;99.90;;;;;;5109314;28;20415;-71
2023/01/25 06:31:20;;;;;;;22.90;16.63;;;2.80;99.90;;;;;;5109445;28;20392;-71
2023/01/25 06:33:50;;;;;;;23.87;17.30;;;2.80;99.90;;;;;;5109907;28;20396;-71
2023/01/25 06:36:18;;;;;;;21.85;16.00;;;2.90;99.90;;;;;;5110627;28;20400;-71
2023/01/25 06:38:48;;;;;;;23.35;16.75;;;2.80;99.90;;;;;;5111529;28;20869;-71
2023/01/25 06:41:14;;;;;;;24.05;16.48;;;2.80;99.90;;;;;;5110311;28;20395;-70
2023/01/25 06:43:39;;;;;;;24.30;16.60;;;2.90;99.90;;;;;;5110824;28;20376;-71
2023/01/25 06:46:07;;;;;;;23.70;16.80;;;2.80;99.90;;;;;;5111221;28;20384;-70
2023/01/25 06:48:33;;;;;;;21.35;15.85;;;2.80;99.90;;;;;;5111430;28;20402;-70
2023/01/25 06:51:07;;;;;;;23.90;16.80;;;2.70;99.90;;;;;;5111106;28;20479;-70
2023/01/25 06:53:35;;;;;;;25.55;17.55;;;2.90;99.90;;;;;;5110505;28;20388;-70
2023/01/25 06:56:04;;;;;;;21.48;16.00;;;2.90;99.90;;;;;;5111297;28;20479;-70
2023/01/25 06:58:30;;;;;;;23.58;16.58;;;3.00;99.90;;;;;;5111039;28;20407;-70
2023/01/25 07:01:05;;;;;;;22.52;16.50;;;2.90;99.90;;;;;;5111099;28;20372;-70
2023/01/25 07:03:32;;;;;;;23.02;16.75;;;2.90;99.90;;;;;;5109989;28;20445;-70
2023/01/25 07:06:02;;;;;;;26.70;17.85;;;2.90;99.90;;;;;;5110641;28;20897;-69
2023/01/25 07:08:28;;;;;;;25.40;17.10;;;2.80;99.90;;;;;;5111327;28;20404;-70
2023/01/25 07:10:55;;;;;;;25.88;17.02;;;2.80;99.90;;;;;;5110819;28;20394;-70
2023/01/25 07:13:21;;;;;;;24.85;16.55;;;2.90;99.90;;;;;;5110281;28;20406;-70
2023/01/25 07:15:58;;;;;;;25.43;17.97;;;2.80;99.90;;;;;;5110871;28;20396;-69
2023/01/25 07:18:24;;;;;;;28.45;17.90;;;2.90;99.90;;;;;;5110796;27;20408;-70
2023/01/25 07:20:51;;;;;;;25.20;17.25;;;2.90;99.90;;;;;;5110480;28;20379;-70
2023/01/25 07:23:17;;;;;;;23.40;16.65;;;2.90;99.90;;;;;;5109610;28;20453;-70
2023/01/25 07:25:47;;;;;;;25.27;17.88;;;2.90;99.90;;;;;;5110595;28;20428;-70
2023/01/25 07:28:13;;;;;;;25.02;17.20;;;2.90;99.90;;;;;;5110967;28;20456;-70
2023/01/25 07:30:40;;;;;;;24.42;17.65;;;2.70;99.90;;;;;;5111755;28;20391;-70
2023/01/25 07:33:05;;;;;;;25.38;17.45;;;2.70;99.90;;;;;;5111752;28;20384;-70
2023/01/25 07:35:31;;;;;;;24.67;17.60;;;2.80;99.90;;;;;;5103882;28;20412;-70
2023/01/25 07:37:57;;;;;;;24.93;17.63;;;2.80;99.90;;;;;;5102999;28;20904;-70
2023/01/25 07:40:25;;;;;;;23.63;17.07;;;2.70;99.90;;;;;;5114897;28;20384;-70
2023/01/25 07:42:51;;;;;;;24.20;17.35;;;2.80;99.90;;;;;;5113630;28;20480;-70
2023/01/25 07:45:17;;;;;;;24.27;17.23;;;2.90;99.90;;;;;;5114873;28;20372;-71
2023/01/25 07:47:43;;;;;;;22.73;17.38;;;2.90;99.90;;;;;;5114720;28;20413;-70
2023/01/25 07:50:09;;;;;;;26.90;18.90;;;2.90;99.90;;;;;;5114644;28;20416;-71
2023/01/25 07:52:35;;;;;;;25.23;17.17;;;2.90;99.90;;;;;;5112014;28;20407;-70
2023/01/25 07:55:01;;;;;;;25.07;16.90;;;3.00;99.90;;;;;;5114049;28;20435;-71
2023/01/25 07:57:27;;;;;;;24.00;17.10;;;3.00;99.90;;;;;;5114292;28;20423;-71
2023/01/25 07:59:53;;;;;;;24.02;17.58;;;3.00;99.90;;;;;;5114889;28;20917;-72
2023/01/25 08:02:19;;;;;;;25.70;17.25;;;3.10;99.90;;;;;;5114109;28;20483;-71
2023/01/25 08:04:45;;;;;;;24.88;17.77;;;3.10;99.90;;;;;;5110323;28;20426;-71
2023/01/25 08:07:11;;;;;;;26.03;16.80;;;3.10;99.90;;;;;;5113592;28;20470;-71
2023/01/25 08:09:37;;;;;;;23.88;17.70;;;3.10;99.90;;;;;;5132785;22;20519;-70
2023/01/25 08:12:05;;;;;;;25.77;18.35;;;2.90;99.90;;;;;;5113321;28;21181;-70
2023/01/25 08:14:31;;;;;;;24.00;17.30;;;3.00;99.90;;;;;;5113258;28;20460;-70
2023/01/25 08:16:56;;;;;;;24.15;18.13;;;3.10;99.90;;;;;;5114148;28;20784;-70
2023/01/25 08:19:23;;;;;;;24.15;17.90;;;3.00;99.90;;;;;;5110887;28;20497;-72
2023/01/25 08:21:49;;;;;;;23.27;17.40;;;2.90;99.90;;;;;;5093747;28;20378;-72
2023/01/25 08:24:15;;;;;;;24.20;18.30;;;2.80;99.90;;;;;;5093032;28;20877;-71
2023/01/25 08:26:42;;;;;;;23.27;17.52;;;2.80;99.90;;;;;;5093881;28;20960;-72
2023/01/25 08:29:10;;;;;;;26.77;18.67;;;3.00;99.90;;;;;;5093623;28;20385;-71
2023/01/25 08:31:35;;;;;;;24.60;17.13;;;3.10;99.90;;;;;;5093538;28;20489;-72
2023/01/25 08:34:02;;;;;;;22.40;15.85;;;3.10;99.90;;;;;;5092795;28;20405;-72
2023/01/25 08:36:27;;;;;;;23.70;16.98;;;3.30;99.90;;;;;;5078302;28;20434;-72
2023/01/25 08:38:59;;;;;;;24.90;17.30;;;3.20;99.90;;;;;;5100729;28;20434;-72
2023/01/25 08:41:26;;;;;;;25.90;16.25;;;3.40;99.90;;;;;;5093237;28;20875;-72
2023/01/25 08:43:54;;;;;;;23.58;17.15;;;3.30;99.90;;;;;;5092545;28;20370;-71
2023/01/25 08:46:21;;;;;;;24.50;17.05;;;3.30;99.90;;;;;;5093939;28;20465;-72
2023/01/25 08:48:46;;;;;;;25.35;17.55;;;3.40;99.90;;;;;;5075195;28;20441;-72
2023/01/25 08:51:14;;;;;;;23.20;17.80;;;3.40;99.90;;;;;;5106984;28;20388;-72
2023/01/25 08:53:40;;;;;;;22.73;17.60;;;3.50;99.90;;;;;;5112624;28;20445;-72
2023/01/25 08:56:09;;;;;;;25.50;16.60;;;3.50;99.90;;;;;;5111583;28;20404;-72
2023/01/25 08:58:37;;;;;;;23.55;15.80;;;3.50;99.90;;;;;;5092702;28;20493;-71
2023/01/25 09:01:06;;;;;;;23.27;16.60;;;3.30;99.90;;;;;;5093002;28;20421;-72
2023/01/25 09:03:35;;;;;;;24.13;16.88;;;3.30;99.90;;;;;;5092134;28;20378;-72
2023/01/25 09:06:01;;;;;;;21.80;16.58;;;3.30;99.90;;;;;;5092807;28;20429;-72
2023/01/25 09:08:26;;;;;;;22.90;17.10;;;3.30;99.90;;;;;;5092867;28;20477;-71
2023/01/25 09:10:52;;;;;;;24.20;16.70;;;3.30;99.90;;;;;;5111622;28;20819;-72
2023/01/25 09:13:17;;;;;;;25.97;18.13;;;3.10;99.90;;;;;;5112111;28;20859;-72
2023/01/25 09:15:43;;;;;;;31.90;19.20;;;3.10;99.90;;;;;;5113018;28;20382;-72
2023/01/25 09:18:09;;;;;;;24.03;17.57;;;3.10;99.90;;;;;;5112833;28;20400;-71
2023/01/25 09:20:38;;;;;;;26.40;17.52;;;3.20;99.90;;;;;;5112848;28;20384;-72
2023/01/25 09:23:03;;;;;;;25.67;18.25;;;3.20;99.90;;;;;;5092838;28;20911;-72
2023/01/25 09:25:29;;;;;;;26.27;17.88;;;3.20;99.90;;;;;;5092521;28;20382;-72
2023/01/25 09:27:54;;;;;;;24.67;17.90;;;3.20;99.90;;;;;;5092376;28;20750;-72
2023/01/25 09:30:20;;;;;;;23.80;17.50;;;3.20;99.90;;;;;;5105401;28;20388;-72
2023/01/25 09:32:48;;;;;;;23.80;18.17;;;3.20;99.90;;;;;;5111629;28;20389;-72
2023/01/25 09:35:14;;;;;;;29.25;19.08;;;3.30;99.90;;;;;;5107293;28;20416;-72
2023/01/25 09:37:39;;;;;;;20.52;16.50;;;3.20;99.90;;;;;;5092069;28;20797;-72
2023/01/25 09:40:16;;;;;;;25.17;17.70;;;3.00;99.90;;;;;;5092185;28;20382;-72
2023/01/25 09:42:54;;;;;;;24.70;17.40;;;3.20;99.90;;;;;;5105482;28;20391;-72
2023/01/25 09:45:34;;;;;;;26.63;18.02;;;3.20;99.90;;;;;;5112388;28;20806;-72
2023/01/25 09:48:21;;;;;;;23.42;16.23;;;3.40;99.90;;;;;;5104256;28;20393;-72
2023/01/25 09:51:02;;;;;;;21.50;16.77;;;3.20;99.90;;;;;;5091887;28;20385;-72
2023/01/25 09:53:35;;;;;;;23.73;17.80;;;3.40;99.90;;;;;;5090664;28;20465;-72
2023/01/25 09:56:12;;;;;;;22.58;16.77;;;3.30;99.90;;;;;;5092000;28;20378;-72
2023/01/25 09:58:43;;;;;;;22.35;16.40;;;3.30;99.90;;;;;;5092043;28;20390;-72
2023/01/25 10:01:14;;;;;;;23.58;17.48;;;3.50;99.90;;;;;;5107081;28;20389;-72
2023/01/25 10:03:51;;;;;;;23.73;15.98;;;3.30;99.90;;;;;;5101545;28;20386;-72
2023/01/25 10:06:19;;;;;;;22.48;16.13;;;3.50;99.90;;;;;;5089742;28;20900;-72
2023/01/25 10:08:52;;;;;;;20.80;15.98;;;3.40;99.90;;;;;;5091456;28;20425;-72
2023/01/25 10:11:27;;;;;;;22.80;16.25;;;3.50;99.90;;;;;;5073261;28;20437;-72
2023/01/25 10:13:55;;;;;;;23.63;16.55;;;3.60;99.90;;;;;;5090530;28;20382;-72
2023/01/25 10:16:43;;;;;;;23.05;16.23;;;3.60;99.90;;;;;;5073139;28;20390;-72
2023/01/25 10:19:38;;;;;;;25.25;17.70;;;3.60;99.90;;;;;;5091220;28;21014;-72
2023/01/25 10:22:10;;;;;;;23.30;16.53;;;3.50;99.90;;;;;;5091333;28;20382;-72
2023/01/25 10:25:00;;;;;;;23.00;15.93;;;3.60;99.90;;;;;;5090422;28;20381;-72
2023/01/25 10:27:44;;;;;;;22.00;16.25;;;3.80;99.90;;;;;;5073043;28;20767;-71
2023/01/25 10:30:27;;;;;;;23.20;16.50;;;3.80;99.90;;;;;;5095229;28;20393;-72
2023/01/25 10:33:01;;;;;;;23.85;17.38;;;3.70;99.90;;;;;;5110648;28;20416;-72
2023/01/25 10:35:36;;;;;;;21.45;15.65;;;3.80;99.90;;;;;;5086465;28;20399;-72
2023/01/25 10:38:17;;;;;;;19.23;15.13;;;3.70;99.90;;;;;;5070846;28;20778;-72
2023/01/25 10:40:47;;;;;;;24.20;16.15;;;3.90;99.90;;;;;;5070847;28;20380;-72
2023/01/25 10:43:22;;;;;;;22.02;16.48;;;3.90;99.90;;;;;;5069958;28;20454;-72
2023/01/25 10:45:49;;;;;;;20.35;15.23;;;3.90;99.90;;;;;;5072926;28;20383;-72
2023/01/25 10:48:26;;;;;;;19.55;15.13;;;3.90;99.90;;;;;;5091221;28;20518;-72
2023/01/25 10:50:54;;;;;;;23.13;16.40;;;3.90;99.90;;;;;;5101339;28;20407;-72
2023/01/25 10:53:28;;;;;;;22.70;16.15;;;4.00;99.90;;;;;;5110222;28;20476;-72
2023/01/25 10:56:09;;;;;;;22.67;17.15;;;4.00;99.90;;;;;;5111431;28;20368;-72
2023/01/25 10:58:37;;;;;;;22.75;16.35;;;4.00;99.90;;;;;;5111024;28;20822;-72
2023/01/25 11:01:05;;;;;;;21.15;15.30;;;3.90;99.90;;;;;;5111109;28;20379;-72
2023/01/25 11:03:40;;;;;;;21.50;16.13;;;3.90;99.90;;;;;;5096055;28;20577;-72
2023/01/25 11:06:07;;;;;;;21.75;16.00;;;3.90;99.90;;;;;;5089943;28;21082;-72
2023/01/25 11:08:39;;;;;;;22.88;15.80;;;3.90;99.90;;;;;;5094177;28;20751;-72
2023/01/25 11:11:24;;;;;;;21.60;15.48;;;3.90;99.90;;;;;;5110635;28;20404;-72
2023/01/25 11:13:51;;;;;;;22.73;15.77;;;3.90;99.90;;;;;;5110176;28;20542;-72
2023/01/25 11:16:25;;;;;;;21.90;15.48;;;3.90;99.90;;;;;;5110988;28;20384;-72
2023/01/25 11:18:53;;;;;;;23.40;16.50;;;3.80;99.90;;;;;;5110688;28;20405;-72
2023/01/25 11:21:22;;;;;;;20.35;15.40;;;4.00;99.90;;;;;;5100237;28;20401;-72
2023/01/25 11:24:01;;;;;;;21.60;16.00;;;3.90;99.90;;;;;;5089507;28;20386;-72
2023/01/25 11:26:27;;;;;;;22.88;16.45;;;4.00;99.90;;;;;;5090507;28;20896;-72
2023/01/25 11:29:18;;;;;;;22.40;16.50;;;4.10;99.90;;;;;;5072445;28;20902;-72
2023/01/25 11:31:48;;;;;;;20.17;15.60;;;4.10;99.90;;;;;;5090569;28;20380;-72
2023/01/25 11:34:16;;;;;;;21.52;15.88;;;3.90;99.90;;;;;;5105321;28;20392;-72
2023/01/25 11:37:16;;;;;;;22.00;15.75;;;4.10;99.90;;;;;;5092868;28;20879;-72
2023/01/25 11:40:02;;;;;;;23.52;16.20;;;4.00;99.90;;;;;;5091221;28;20936;-72
2023/01/25 11:42:28;;;;;;;20.88;15.55;;;4.00;99.90;;;;;;5110227;28;20376;-72
2023/01/25 11:45:33;;;;;;;20.45;15.15;;;4.10;99.90;;;;;;5110219;28;20395;-72
2023/01/25 11:48:34;;;;;;;22.67;15.38;;;4.20;99.90;;;;;;5110670;28;20398;-72
2023/01/25 11:51:07;;;;;;;22.08;15.52;;;4.10;99.90;;;;;;5110491;28;20380;-72
2023/01/25 11:53:42;;;;;;;19.70;14.80;;;4.20;99.90;;;;;;5094379;28;20420;-72
2023/01/25 11:56:31;;;;;;;18.85;13.95;;;4.20;99.90;;;;;;5090200;28;20796;-72
2023/01/25 11:59:25;;;;;;;19.60;14.93;;;4.10;99.90;;;;;;5104480;28;20404;-72
2023/01/25 12:02:00;;;;;;;22.42;14.50;;;4.10;99.90;;;;;;5110634;28;20368;-72
2023/01/25 12:04:41;;;;;;;20.03;14.87;;;4.30;99.90;;;;;;5096412;28;20479;-72
2023/01/25 12:07:23;;;;;;;22.73;15.55;;;4.30;99.90;;;;;;5086757;28;20378;-72
2023/01/25 12:10:23;;;;;;;21.27;14.43;;;4.30;99.90;;;;;;5090151;28;20872;-72
2023/01/25 12:12:53;;;;;;;19.90;13.77;;;4.40;99.90;;;;;;5091155;28;20745;-73
2023/01/25 12:15:31;;;;;;;18.42;15.02;;;4.40;99.90;;;;;;5089905;28;20422;-72
2023/01/25 12:18:21;;;;;;;16.73;13.52;;;4.60;99.90;;;;;;5087907;28;20408;-72
2023/01/25 12:21:17;;;;;;;20.30;14.70;;;4.60;99.90;;;;;;5113996;28;20384;-72
2023/01/25 12:23:59;;;;;;;19.13;13.53;;;4.60;99.90;;;;;;5095110;28;20867;-72
2023/01/25 12:26:29;;;;;;;18.52;13.30;;;4.40;99.90;;;;;;5113773;28;20532;-72
2023/01/25 12:29:29;;;;;;;17.85;13.52;;;4.40;99.90;;;;;;5112524;28;20862;-72
2023/01/25 12:32:15;;;;;;;18.00;13.20;;;4.70;99.90;;;;;;5094185;28;20392;-72
2023/01/25 12:34:46;;;;;;;19.75;14.35;;;4.40;99.90;;;;;;5085890;28;20880;-72
2023/01/25 12:37:27;;;;;;;16.08;12.77;;;4.40;99.90;;;;;;5093437;28;20809;-72
2023/01/25 12:40:07;;;;;;;17.35;12.85;;;4.40;99.90;;;;;;5093090;28;20402;-72
2023/01/25 12:42:39;;;;;;;14.60;11.88;;;4.60;99.90;;;;;;5092786;28;20382;-72
2023/01/25 12:45:15;;;;;;;15.32;12.77;;;4.80;99.90;;;;;;5104856;28;20398;-72
2023/01/25 12:47:48;;;;;;;18.40;12.52;;;4.60;99.90;;;;;;5105830;28;20378;-72
2023/01/25 12:50:27;;;;;;;15.88;12.75;;;4.40;99.90;;;;;;5095136;28;20403;-72
2023/01/25 12:53:07;;;;;;;15.55;12.65;;;4.70;99.90;;;;;;5074252;28;20439;-72